Time;durP1;ratioP1;P1;durP2;ratioP2;P2;SDS_P1;SDS_P2;PMS_P1;PMS_P2;Temp;Humidity;BMP_temperature;BMP_pressure;BME280_temperature;BME280_humidity;BME280_pressure;Samples;Min_cycle;Max_cycle;Signal;HPM_P1;HPM_P2
2021/07/06 15:25:05;;;;;;;6.50;1.70;;;22.90;58.40;;;;;;5062851;27;20393;-48
2021/07/06 15:27:30;;;;;;;10.15;1.90;;;23.50;62.70;;;;;;5067883;28;20059;-46
2021/07/06 15:29:56;;;;;;;8.65;1.60;;;23.70;60.10;;;;;;4930147;28;20037;-46
2021/07/06 15:42:27;;;;;;;6.70;2.08;;;28.70;41.00;;;;;;5021884;27;20415;-70
2021/07/06 15:44:56;;;;;;;8.95;1.63;;;30.70;38.10;;;;;;5014182;28;20500;-70
2021/07/06 15:47:21;;;;;;;10.38;1.90;;;29.40;37.70;;;;;;4971057;28;20042;-70
2021/07/06 15:49:47;;;;;;;4.15;1.40;;;30.70;37.00;;;;;;5006125;28;20042;-72
2021/07/06 16:06:40;;;;;;;9.00;1.52;;;26.10;47.00;;;;;;4999269;28;20485;-66
2021/07/06 16:09:05;;;;;;;10.38;3.80;;;25.60;44.70;;;;;;5023728;28;20146;-64
2021/07/06 16:11:31;;;;;;;13.57;3.80;;;25.90;44.50;;;;;;5017223;28;20105;-65
2021/07/06 16:13:57;;;;;;;10.63;4.28;;;26.80;43.90;;;;;;5018570;28;20028;-66
2021/07/06 16:16:22;;;;;;;6.50;1.70;;;27.70;42.80;;;;;;5014715;28;20404;-66
2021/07/06 16:18:48;;;;;;;6.45;1.45;;;28.40;39.30;;;;;;5009835;28;20030;-65
2021/07/06 16:21:13;;;;;;;5.60;1.90;;;28.80;38.90;;;;;;5017315;28;20033;-65
2021/07/06 16:23:39;;;;;;;7.28;1.27;;;29.10;40.00;;;;;;5012422;28;20060;-65
2021/07/06 16:26:04;;;;;;;6.57;1.08;;;28.60;39.40;;;;;;5015264;28;20033;-65
2021/07/06 16:28:30;;;;;;;7.10;1.77;;;28.80;40.00;;;;;;5007995;28;20037;-73
2021/07/06 16:30:56;;;;;;;17.20;3.13;;;28.50;39.10;;;;;;5020109;28;20032;-67
2021/07/06 16:33:21;;;;;;;5.65;1.73;;;27.70;41.10;;;;;;5004418;28;20018;-67
2021/07/06 16:35:53;;;;;;;9.20;2.08;;;27.40;42.10;;;;;;5004314;28;20048;-65
2021/07/06 16:38:18;;;;;;;4.97;1.88;;;26.90;42.20;;;;;;5021883;28;20104;-66
2021/07/06 16:40:46;;;;;;;13.10;2.28;;;26.70;43.60;;;;;;5004664;28;20121;-66
2021/07/06 16:43:12;;;;;;;4.57;1.40;;;26.00;43.00;;;;;;4931661;28;20096;-65
2021/07/06 16:45:37;;;;;;;5.20;1.67;;;25.90;43.80;;;;;;5014642;28;20057;-65
2021/07/06 16:48:03;;;;;;;4.78;1.20;;;26.00;43.40;;;;;;5011544;28;20030;-65
2021/07/06 16:50:29;;;;;;;6.18;1.65;;;25.80;44.00;;;;;;5018565;28;20019;-66
2021/07/06 17:59:43;;;;;;;8.43;1.38;;;23.60;49.20;;;;;;4947468;28;20047;-65
2021/07/06 18:04:53;;;;;;;9.82;2.60;;;23.70;50.50;;;;;;4990655;28;20452;-66
2021/07/06 18:07:18;;;;;;;9.98;1.77;;;23.50;50.20;;;;;;4992272;28;20038;-65
2021/07/06 18:09:44;;;;;;;4.95;1.63;;;23.10;50.90;;;;;;5018939;28;20026;-65
2021/07/06 18:12:10;;;;;;;27.10;15.30;;;23.20;51.90;;;;;;5022045;28;20101;-66
2021/07/06 18:14:35;;;;;;;47.53;33.88;;;23.10;52.20;;;;;;5024654;28;20069;-66
2021/07/06 18:17:02;;;;;;;7.45;2.15;;;23.20;54.00;;;;;;5009788;28;20542;-66
2021/07/06 18:19:28;;;;;;;40.85;26.50;;;23.00;51.40;;;;;;5016268;28;20389;-65
2021/07/06 18:21:54;;;;;;;54.47;30.38;;;22.80;52.50;;;;;;5009206;28;20041;-66
2021/07/06 18:24:19;;;;;;;10.80;4.47;;;22.90;53.10;;;;;;5010732;28;20103;-66
2021/07/06 18:26:45;;;;;;;12.02;5.03;;;22.80;56.00;;;;;;5023549;28;20030;-66
2021/07/06 18:29:10;;;;;;;8.02;2.90;;;22.70;53.40;;;;;;5007652;28;20036;-66
2021/07/06 18:31:36;;;;;;;7.53;1.90;;;22.70;55.30;;;;;;5009486;28;20014;-66
2021/07/06 18:34:05;;;;;;;8.45;3.10;;;22.60;54.90;;;;;;5011406;28;20021;-66
2021/07/06 18:36:31;;;;;;;10.90;2.03;;;22.60;56.10;;;;;;5013552;28;20119;-66
2021/07/06 18:38:56;;;;;;;10.48;2.10;;;22.50;54.00;;;;;;5017614;28;20025;-67
2021/07/06 18:41:22;;;;;;;12.00;1.80;;;22.50;54.70;;;;;;5013112;28;20113;-66
2021/07/06 18:43:47;;;;;;;11.32;2.10;;;22.50;54.90;;;;;;5015867;28;20033;-66
2021/07/06 18:46:14;;;;;;;5.07;1.50;;;22.50;54.30;;;;;;5019776;28;20376;-67
2021/07/06 18:48:39;;;;;;;8.52;2.13;;;22.40;54.90;;;;;;5013736;28;20049;-72
2021/07/06 18:51:05;;;;;;;7.13;1.80;;;22.40;55.70;;;;;;5020642;28;20060;-66
2021/07/06 18:53:30;;;;;;;7.05;1.80;;;22.40;55.10;;;;;;5018020;28;20114;-64
2021/07/06 18:55:56;;;;;;;8.35;1.55;;;22.30;55.30;;;;;;5013927;28;20036;-64
2021/07/06 18:58:21;;;;;;;10.25;2.05;;;22.20;54.50;;;;;;5008484;28;20111;-64
2021/07/06 19:00:48;;;;;;;12.80;2.25;;;22.20;55.20;;;;;;5013388;28;20633;-65
2021/07/06 19:03:14;;;;;;;8.65;1.63;;;22.20;56.00;;;;;;5009320;28;20054;-64
2021/07/06 19:05:41;;;;;;;8.15;2.00;;;22.20;55.40;;;;;;5020603;28;20772;-64
2021/07/06 19:08:08;;;;;;;8.85;1.92;;;22.00;56.20;;;;;;5017482;28;20110;-64
2021/07/06 19:10:33;;;;;;;7.18;2.00;;;22.00;58.40;;;;;;5018175;28;20034;-67
2021/07/06 19:12:59;;;;;;;7.53;1.70;;;21.80;57.00;;;;;;5016453;28;20097;-64
2021/07/06 19:15:26;;;;;;;8.48;1.83;;;21.90;57.10;;;;;;5007932;28;20456;-65
2021/07/06 19:17:52;;;;;;;4.10;1.40;;;21.90;57.50;;;;;;5008963;28;20514;-65
2021/07/06 19:20:19;;;;;;;10.93;1.88;;;21.80;57.20;;;;;;5012516;28;20026;-65
2021/07/06 19:22:45;;;;;;;7.97;1.70;;;21.70;59.40;;;;;;5011072;28;20032;-64
2021/07/06 19:27:49;;;;;;;2.72;1.38;;;21.10;64.10;;;;;;5010713;28;20049;-65
2021/07/06 19:33:00;;;;;;;6.57;1.48;;;20.80;66.80;;;;;;5018957;28;20091;-65
2021/07/06 19:35:26;;;;;;;6.75;1.50;;;20.70;68.10;;;;;;5017518;28;20716;-65
2021/07/06 19:37:51;;;;;;;4.32;1.60;;;20.60;69.10;;;;;;5026059;28;20480;-65
2021/07/06 19:40:17;;;;;;;8.82;1.40;;;20.60;69.50;;;;;;5015773;28;20064;-65
2021/07/06 19:42:42;;;;;;;6.32;1.20;;;20.40;70.40;;;;;;5026287;28;20052;-65
2021/07/06 19:45:09;;;;;;;8.30;1.48;;;20.30;70.20;;;;;;5021901;28;20048;-65
2021/07/06 19:47:34;;;;;;;7.18;1.70;;;20.30;70.80;;;;;;5025593;28;20108;-65
2021/07/06 19:50:00;;;;;;;4.82;1.20;;;21.10;71.60;;;;;;5010199;28;20109;-65
2021/07/06 19:52:25;;;;;;;2.35;1.50;;;20.20;71.90;;;;;;5011611;28;20049;-66
2021/07/06 19:54:51;;;;;;;2.60;1.20;;;20.10;72.70;;;;;;5016384;28;20528;-65
2021/07/06 19:57:17;;;;;;;3.83;1.85;;;19.90;73.80;;;;;;5018532;28;20038;-65
2021/07/06 19:59:43;;;;;;;3.30;1.45;;;20.00;74.50;;;;;;5009438;28;20041;-65
2021/07/06 20:02:08;;;;;;;4.13;1.20;;;20.00;74.70;;;;;;5008845;28;20428;-66
2021/07/06 20:04:34;;;;;;;6.50;1.88;;;19.90;74.70;;;;;;5013311;28;20516;-64
2021/07/06 20:06:59;;;;;;;5.47;1.45;;;19.90;74.90;;;;;;5027225;28;20483;-66
2021/07/06 20:09:29;;;;;;;3.65;1.50;;;19.90;74.80;;;;;;5016531;28;20029;-65
2021/07/06 20:11:55;;;;;;;4.35;1.40;;;19.90;75.90;;;;;;5017068;28;20041;-65
2021/07/06 20:14:20;;;;;;;6.65;2.15;;;19.80;75.10;;;;;;5019330;28;20388;-69
2021/07/06 20:16:46;;;;;;;6.75;1.70;;;19.70;75.10;;;;;;5012228;28;20036;-65
2021/07/06 20:19:14;;;;;;;4.25;1.48;;;19.60;75.90;;;;;;5017701;28;20392;-66
2021/07/06 20:21:40;;;;;;;12.77;2.33;;;19.60;76.20;;;;;;5020772;28;20022;-66
2021/07/06 20:24:06;;;;;;;7.78;1.95;;;19.60;76.90;;;;;;5025691;28;20029;-67
2021/07/06 20:26:31;;;;;;;7.63;2.17;;;19.50;76.20;;;;;;5021346;28;20036;-64
2021/07/06 20:28:57;;;;;;;5.68;1.70;;;19.60;76.70;;;;;;5017283;28;20029;-65
2021/07/06 20:31:23;;;;;;;4.20;1.55;;;19.60;77.90;;;;;;5006813;28;20126;-66
2021/07/06 20:33:48;;;;;;;5.88;1.58;;;19.70;77.00;;;;;;5006849;28;20022;-65
2021/07/06 20:36:14;;;;;;;4.70;1.80;;;19.60;76.90;;;;;;5008382;28;20033;-65
2021/07/06 20:38:39;;;;;;;9.10;2.10;;;19.60;77.40;;;;;;5007149;28;20026;-66
2021/07/06 20:41:05;;;;;;;7.28;1.92;;;19.60;77.80;;;;;;5015177;28;20429;-65
2021/07/06 20:43:34;;;;;;;7.35;1.83;;;19.60;77.60;;;;;;5013278;28;20030;-66
2021/07/06 20:45:59;;;;;;;7.15;2.30;;;19.50;77.80;;;;;;5006627;28;20127;-66
2021/07/06 20:48:26;;;;;;;4.93;1.90;;;19.60;78.40;;;;;;5011768;28;20471;-65
2021/07/06 20:50:52;;;;;;;5.55;1.80;;;19.60;77.00;;;;;;5026768;28;20022;-66
2021/07/06 20:53:20;;;;;;;5.65;2.20;;;19.50;78.80;;;;;;5012024;28;20033;-66
2021/07/06 20:55:46;;;;;;;11.88;4.22;;;19.50;77.70;;;;;;5020633;28;20158;-66
2021/07/06 20:58:12;;;;;;;4.25;2.65;;;19.50;77.20;;;;;;5018225;28;20088;-65
2021/07/06 21:00:40;;;;;;;4.85;2.10;;;19.60;78.40;;;;;;5013281;28;20037;-65
2021/07/06 21:03:06;;;;;;;7.20;1.90;;;19.50;77.90;;;;;;5011154;28;20073;-65
2021/07/06 21:05:33;;;;;;;6.35;1.70;;;19.50;78.90;;;;;;5020300;28;20485;-65
2021/07/06 21:08:00;;;;;;;6.25;1.90;;;19.40;78.80;;;;;;5014928;28;20022;-66
2021/07/06 21:10:25;;;;;;;4.32;1.65;;;19.40;77.30;;;;;;5018327;28;20024;-66
2021/07/06 21:12:51;;;;;;;10.63;1.90;;;19.40;78.00;;;;;;5019637;28;20014;-65
2021/07/06 21:15:19;;;;;;;6.10;1.63;;;19.40;77.50;;;;;;4987643;28;20053;-66
2021/07/06 21:17:52;;;;;;;7.82;2.10;;;19.30;77.60;;;;;;5010740;28;20084;-65
2021/07/06 21:20:18;;;;;;;10.50;1.73;;;19.30;77.80;;;;;;5017451;28;20091;-65
2021/07/06 21:22:43;;;;;;;7.65;2.75;;;19.30;78.70;;;;;;5018544;28;20435;-65
2021/07/06 21:25:09;;;;;;;17.00;2.40;;;19.20;78.90;;;;;;5022026;28;20041;-66
2021/07/06 21:27:37;;;;;;;6.90;1.90;;;19.20;79.00;;;;;;5025665;28;20026;-66
2021/07/06 21:30:11;;;;;;;6.55;1.88;;;19.10;79.40;;;;;;5019639;28;20026;-66
2021/07/06 21:32:37;;;;;;;8.52;2.63;;;19.10;79.90;;;;;;5014933;28;20029;-65
2021/07/06 21:35:03;;;;;;;7.32;2.70;;;19.00;80.10;;;;;;5016714;28;20365;-65
2021/07/06 21:37:29;;;;;;;5.47;2.40;;;19.00;80.80;;;;;;5023799;28;20034;-65
2021/07/06 21:39:54;;;;;;;4.72;1.83;;;19.00;80.80;;;;;;5015395;28;20030;-65
2021/07/06 21:42:20;;;;;;;7.68;1.98;;;19.00;81.20;;;;;;5014618;28;20189;-65
2021/07/06 21:44:48;;;;;;;4.60;2.22;;;18.90;80.60;;;;;;5002927;28;20496;-65
2021/07/06 21:47:14;;;;;;;7.38;1.90;;;18.90;81.30;;;;;;5018673;28;20022;-64
2021/07/06 21:49:40;;;;;;;4.95;1.90;;;18.80;81.50;;;;;;5016137;28;20112;-65
2021/07/06 21:52:07;;;;;;;5.30;1.80;;;18.80;81.60;;;;;;5009550;28;20097;-65
2021/07/06 21:54:32;;;;;;;5.80;1.90;;;18.70;81.60;;;;;;5007741;28;20022;-64
2021/07/06 21:56:58;;;;;;;5.00;2.00;;;18.70;81.00;;;;;;5023909;28;20048;-64
2021/07/06 21:59:23;;;;;;;6.68;2.00;;;18.70;81.90;;;;;;5020308;28;20037;-64
2021/07/06 22:01:49;;;;;;;6.30;1.77;;;18.70;82.60;;;;;;5022123;28;20045;-64
2021/07/06 22:04:15;;;;;;;3.85;1.92;;;18.60;82.20;;;;;;5022834;28;20044;-65
2021/07/06 22:06:40;;;;;;;4.93;2.08;;;18.60;82.40;;;;;;5013357;28;20037;-65
2021/07/06 22:09:06;;;;;;;9.07;1.90;;;18.60;83.40;;;;;;5018145;28;20052;-65
2021/07/06 22:11:32;;;;;;;9.95;1.95;;;18.50;83.40;;;;;;5025906;28;20456;-65
2021/07/06 22:13:57;;;;;;;3.75;1.90;;;18.40;83.00;;;;;;5028017;28;20369;-65
2021/07/06 22:16:23;;;;;;;9.50;2.88;;;18.50;83.60;;;;;;5026069;28;20107;-65
2021/07/06 22:18:49;;;;;;;5.10;1.88;;;18.40;84.50;;;;;;5019432;28;20057;-64
2021/07/06 22:21:15;;;;;;;11.32;2.33;;;18.40;84.70;;;;;;5018763;28;20056;-64
2021/07/06 22:23:41;;;;;;;8.57;2.25;;;18.50;84.50;;;;;;5017334;28;20052;-65
2021/07/06 22:26:06;;;;;;;4.90;2.58;;;18.40;84.80;;;;;;5020003;28;20022;-64
2021/07/06 22:28:32;;;;;;;5.60;1.98;;;18.30;84.70;;;;;;5018397;28;20064;-64
2021/07/06 22:30:58;;;;;;;8.27;2.25;;;18.30;84.70;;;;;;5021265;28;20132;-64
2021/07/06 22:33:24;;;;;;;5.65;2.53;;;18.20;84.80;;;;;;5021895;28;20025;-65
2021/07/06 22:35:49;;;;;;;10.02;2.10;;;18.30;85.40;;;;;;5014360;28;20037;-64
2021/07/06 22:38:15;;;;;;;7.07;2.40;;;18.30;85.90;;;;;;5024514;28;20049;-64
2021/07/06 22:40:41;;;;;;;7.45;2.33;;;18.30;86.00;;;;;;5019123;28;20048;-64
2021/07/06 22:43:06;;;;;;;7.97;2.50;;;18.30;86.50;;;;;;5017134;28;20045;-64
2021/07/06 22:45:32;;;;;;;5.47;2.38;;;18.20;85.60;;;;;;5018463;28;20064;-64
2021/07/06 22:47:57;;;;;;;5.97;2.10;;;18.20;86.00;;;;;;5018854;28;20033;-64
2021/07/06 22:50:23;;;;;;;8.70;2.00;;;18.20;85.30;;;;;;5018458;28;20025;-65
2021/07/06 22:52:48;;;;;;;9.50;2.45;;;18.20;86.10;;;;;;5017828;28;20228;-64
2021/07/06 22:55:15;;;;;;;4.05;1.95;;;18.20;85.90;;;;;;5022739;28;20044;-65
2021/07/06 22:57:40;;;;;;;7.47;2.22;;;18.10;87.60;;;;;;4999987;28;20488;-64
2021/07/06 23:00:09;;;;;;;7.20;2.17;;;18.10;87.60;;;;;;5005487;28;20088;-64
2021/07/06 23:02:34;;;;;;;7.30;2.92;;;18.10;87.30;;;;;;5019995;28;20104;-64
2021/07/06 23:05:00;;;;;;;6.53;2.38;;;18.00;87.70;;;;;;5018150;28;20419;-65
2021/07/06 23:07:25;;;;;;;7.75;2.13;;;18.00;87.20;;;;;;5015244;28;20450;-64
2021/07/06 23:09:51;;;;;;;6.72;2.30;;;18.00;87.30;;;;;;5017189;28;20068;-64
2021/07/06 23:12:17;;;;;;;6.55;2.65;;;18.00;87.40;;;;;;5015469;28;20024;-64
2021/07/06 23:14:42;;;;;;;4.53;2.40;;;18.00;88.40;;;;;;5014661;28;20244;-65
2021/07/06 23:17:08;;;;;;;9.20;2.22;;;17.90;88.70;;;;;;5010747;28;20022;-64
2021/07/06 23:19:33;;;;;;;7.20;2.05;;;17.90;88.40;;;;;;5014782;28;20512;-64
2021/07/06 23:21:59;;;;;;;8.48;1.90;;;17.80;88.80;;;;;;5009508;28;20029;-65
2021/07/06 23:24:24;;;;;;;7.40;2.53;;;17.80;88.30;;;;;;5015488;28;20025;-64
2021/07/06 23:26:50;;;;;;;5.72;2.00;;;17.50;88.10;;;;;;5005847;28;20029;-65
2021/07/06 23:29:15;;;;;;;7.78;2.47;;;17.80;89.10;;;;;;5005404;28;20026;-65
2021/07/06 23:31:41;;;;;;;4.57;2.08;;;17.80;89.10;;;;;;5018815;28;20068;-65
2021/07/06 23:34:06;;;;;;;7.40;2.58;;;17.70;89.50;;;;;;5021982;28;20021;-64
2021/07/06 23:36:32;;;;;;;12.18;2.83;;;17.70;89.10;;;;;;5021923;28;20025;-65
2021/07/06 23:38:58;;;;;;;4.07;2.58;;;17.70;88.60;;;;;;5025173;28;20112;-64
2021/07/06 23:41:23;;;;;;;11.23;2.97;;;17.70;90.00;;;;;;5024591;28;20029;-64
2021/07/06 23:43:49;;;;;;;8.65;3.05;;;17.70;90.10;;;;;;5026585;28;20044;-65
2021/07/06 23:46:15;;;;;;;9.23;2.63;;;17.60;90.20;;;;;;5008175;28;20022;-64
2021/07/06 23:48:40;;;;;;;4.82;3.00;;;17.60;90.10;;;;;;5023160;28;20029;-65
2021/07/06 23:51:06;;;;;;;4.82;2.60;;;17.60;90.30;;;;;;5009929;28;20022;-64
2021/07/06 23:53:32;;;;;;;6.45;2.90;;;17.50;90.70;;;;;;5016178;28;20060;-64
2021/07/06 23:55:57;;;;;;;6.60;3.15;;;17.50;90.30;;;;;;5007906;28;20061;-64
2021/07/06 23:58:23;;;;;;;11.77;3.40;;;17.50;90.60;;;;;;5013558;28;20591;-64
